Time;durP1;ratioP1;P1;durP2;ratioP2;P2;SDS_P1;SDS_P2;PMS_P1;PMS_P2;Temp;Humidity;BMP_temperature;BMP_pressure;BME280_temperature;BME280_humidity;BME280_pressure;Samples;Min_cycle;Max_cycle;Signal;HPM_P1;HPM_P2
2021/12/11 00:01:24;;;;;;;19.48;8.10;;;-1.40;99.90;;;;;;4972662;28;20062;-75
2021/12/11 00:04:01;;;;;;;19.40;8.55;;;-1.40;99.90;;;;;;4955923;28;20114;-75
2021/12/11 00:06:32;;;;;;;24.60;9.48;;;-1.40;99.90;;;;;;4972895;28;20050;-75
2021/12/11 00:09:02;;;;;;;14.32;5.93;;;-1.50;99.90;;;;;;5048270;28;20049;-75
2021/12/11 00:11:34;;;;;;;14.18;5.95;;;-1.60;99.90;;;;;;5053810;28;20037;-75
2021/12/11 00:14:03;;;;;;;16.92;7.75;;;-1.60;99.90;;;;;;5053375;28;20055;-77
2021/12/11 00:16:31;;;;;;;34.05;9.15;;;-1.70;99.90;;;;;;5053496;28;20523;-77
2021/12/11 00:19:03;;;;;;;40.60;7.47;;;-1.70;99.90;;;;;;5052963;28;20485;-75
2021/12/11 00:21:31;;;;;;;16.98;7.53;;;-1.80;99.90;;;;;;5053295;28;20130;-75
2021/12/11 00:24:01;;;;;;;16.77;7.43;;;-1.90;99.90;;;;;;5053475;28;20045;-75
2021/12/11 00:26:37;;;;;;;19.08;9.18;;;-1.90;99.90;;;;;;5035911;28;20044;-71
2021/12/11 00:29:05;;;;;;;19.33;8.27;;;-2.00;99.90;;;;;;5053234;28;20057;-74
2021/12/11 00:31:32;;;;;;;19.13;8.75;;;-2.00;99.90;;;;;;5053300;28;20049;-76
2021/12/11 00:33:59;;;;;;;20.98;9.63;;;-1.90;99.90;;;;;;5053060;28;20086;-74
2021/12/11 00:36:32;;;;;;;20.67;9.70;;;-1.90;99.90;;;;;;5053171;28;20119;-74
2021/12/11 00:39:12;;;;;;;21.02;10.15;;;-1.90;99.90;;;;;;5051182;28;20049;-74
2021/12/11 00:41:39;;;;;;;20.60;10.27;;;-1.90;99.90;;;;;;5052107;28;20049;-75
2021/12/11 00:44:05;;;;;;;19.15;9.15;;;-1.90;99.90;;;;;;5053243;28;20393;-74
2021/12/11 00:46:32;;;;;;;22.88;8.93;;;-1.90;99.90;;;;;;5053196;28;20040;-74
2021/12/11 00:49:14;;;;;;;20.73;8.52;;;-1.80;99.90;;;;;;5051312;28;20053;-70
2021/12/11 00:51:40;;;;;;;16.80;7.65;;;-1.90;99.90;;;;;;5052265;28;20432;-75
2021/12/11 00:54:07;;;;;;;18.27;8.27;;;-1.80;99.90;;;;;;5052926;28;20045;-74
2021/12/11 00:56:37;;;;;;;16.55;7.78;;;-1.80;99.90;;;;;;5052920;28;20040;-74
2021/12/11 00:59:08;;;;;;;18.70;8.95;;;-1.90;99.90;;;;;;5052926;28;20041;-75
2021/12/11 01:01:44;;;;;;;15.27;6.87;;;-1.80;99.90;;;;;;5052777;28;20124;-74
2021/12/11 01:04:14;;;;;;;14.95;6.95;;;-1.80;99.90;;;;;;5052984;28;20049;-74
2021/12/11 01:06:50;;;;;;;18.05;7.68;;;-1.80;99.90;;;;;;5034872;28;20053;-75
2021/12/11 01:09:24;;;;;;;19.00;8.90;;;-1.80;99.90;;;;;;5052629;28;20048;-75
2021/12/11 01:12:05;;;;;;;17.08;8.35;;;-1.80;99.90;;;;;;5053006;28;20048;-73
2021/12/11 01:14:57;;;;;;;17.08;7.90;;;-1.80;99.90;;;;;;5052893;28;20443;-77
2021/12/11 01:17:22;;;;;;;21.50;9.03;;;-1.80;99.90;;;;;;5052543;28;20057;-77
2021/12/11 01:19:52;;;;;;;20.20;9.60;;;-1.80;99.90;;;;;;5052736;28;20061;-75
2021/12/11 01:22:33;;;;;;;26.42;11.40;;;-1.90;99.90;;;;;;5052233;28;20393;-75
2021/12/11 01:25:06;;;;;;;24.08;10.00;;;-1.90;99.90;;;;;;5052591;28;20055;-76
2021/12/11 01:27:32;;;;;;;23.45;10.77;;;-1.90;99.90;;;;;;5052535;28;20045;-74
2021/12/11 01:29:59;;;;;;;22.83;9.68;;;-1.90;99.90;;;;;;5052670;28;20055;-75
2021/12/11 01:32:28;;;;;;;17.65;9.05;;;-0.90;99.90;;;;;;5052740;28;20499;-75
2021/12/11 01:34:56;;;;;;;22.65;9.63;;;-1.90;99.90;;;;;;5052759;28;20037;-75
2021/12/11 01:37:23;;;;;;;20.27;9.60;;;-1.90;99.90;;;;;;5052066;28;20170;-74
2021/12/11 01:39:50;;;;;;;21.67;10.05;;;-1.90;99.90;;;;;;5052145;28;20053;-76
2021/12/11 01:42:27;;;;;;;21.70;9.32;;;-2.00;99.90;;;;;;5052443;28;20378;-74
2021/12/11 01:44:55;;;;;;;17.77;8.27;;;-2.10;99.90;;;;;;5051197;28;20059;-71
2021/12/11 01:47:27;;;;;;;16.42;8.10;;;-2.10;99.90;;;;;;5051190;28;20381;-75
2021/12/11 01:49:58;;;;;;;17.48;7.75;;;-2.10;99.90;;;;;;5052444;28;20041;-73
2021/12/11 01:52:35;;;;;;;16.58;7.15;;;-2.20;99.90;;;;;;5052299;28;20045;-74
2021/12/11 01:55:11;;;;;;;13.70;6.07;;;-2.20;99.90;;;;;;5051904;28;20049;-75
2021/12/11 01:57:37;;;;;;;23.08;5.53;;;-2.30;99.90;;;;;;5051187;28;20091;-75
2021/12/11 02:00:30;;;;;;;15.98;6.50;;;-2.30;99.90;;;;;;5053014;28;20457;-75
2021/12/11 02:02:59;;;;;;;13.02;5.72;;;-2.40;99.90;;;;;;5055910;28;20548;-73
2021/12/11 02:05:32;;;;;;;10.10;4.80;;;-2.40;99.90;;;;;;5054875;28;20507;-76
2021/12/11 02:08:02;;;;;;;11.43;5.55;;;-2.40;99.90;;;;;;5055923;28;20437;-74
2021/12/11 02:10:38;;;;;;;14.27;6.13;;;-2.40;99.90;;;;;;5055423;28;20527;-75
2021/12/11 02:13:08;;;;;;;12.18;5.07;;;-2.40;99.90;;;;;;5055949;28;20067;-75
2021/12/11 02:15:45;;;;;;;11.00;4.60;;;-2.30;99.90;;;;;;5055718;28;20080;-74
2021/12/11 02:18:17;;;;;;;18.10;6.05;;;-2.30;99.90;;;;;;5056001;28;20056;-73
2021/12/11 02:20:53;;;;;;;15.27;6.40;;;-2.40;99.90;;;;;;5055511;28;20118;-73
2021/12/11 02:23:21;;;;;;;11.57;4.47;;;-2.30;99.90;;;;;;5055719;28;20052;-74
2021/12/11 02:25:51;;;;;;;15.00;6.07;;;-2.30;99.90;;;;;;5055089;28;20045;-74
2021/12/11 02:28:30;;;;;;;17.25;5.50;;;-2.40;99.90;;;;;;5055397;28;20052;-74
2021/12/11 02:31:03;;;;;;;17.67;5.95;;;-2.40;99.90;;;;;;5055693;28;20056;-74
2021/12/11 02:33:46;;;;;;;12.90;5.25;;;-2.30;99.90;;;;;;5055538;28;20574;-75
2021/12/11 02:36:17;;;;;;;16.73;6.10;;;-2.30;99.90;;;;;;5037515;28;20037;-71
2021/12/11 02:38:59;;;;;;;14.00;5.60;;;-2.20;99.90;;;;;;5055240;28;20064;-74
2021/12/11 02:41:57;;;;;;;13.95;5.15;;;-2.20;99.90;;;;;;5054990;28;20504;-74
2021/12/11 02:44:35;;;;;;;12.40;5.90;;;-2.20;99.90;;;;;;5055343;28;20041;-73
2021/12/11 02:47:24;;;;;;;14.45;6.68;;;-2.30;99.90;;;;;;5055423;28;20041;-74
2021/12/11 02:50:00;;;;;;;13.65;5.00;;;-2.10;99.90;;;;;;5055041;28;20095;-72
2021/12/11 02:52:45;;;;;;;12.48;5.13;;;-2.10;99.90;;;;;;5055223;28;20047;-73
2021/12/11 02:55:15;;;;;;;13.75;5.20;;;-2.10;99.90;;;;;;5054996;28;20045;-72
2021/12/11 02:57:51;;;;;;;12.38;5.30;;;-2.10;99.90;;;;;;5054420;28;20090;-72
2021/12/11 03:00:33;;;;;;;11.18;4.90;;;-2.20;99.90;;;;;;5055145;28;20120;-71
2021/12/11 03:03:06;;;;;;;13.57;6.13;;;-2.20;99.90;;;;;;5054848;28;20131;-75
2021/12/11 03:05:40;;;;;;;20.65;7.85;;;-2.20;99.90;;;;;;5055161;28;20052;-72
2021/12/11 03:08:10;;;;;;;20.30;6.90;;;-2.20;99.90;;;;;;5054737;28;20428;-76
2021/12/11 03:10:38;;;;;;;15.07;6.00;;;-2.20;99.90;;;;;;5054777;28;20049;-76
2021/12/11 03:13:04;;;;;;;15.23;5.50;;;-2.20;99.90;;;;;;5054317;28;20090;-74
2021/12/11 03:15:31;;;;;;;18.88;8.23;;;-2.30;99.90;;;;;;5054907;28;20044;-73
2021/12/11 03:17:58;;;;;;;15.60;6.93;;;-2.30;99.90;;;;;;5054505;28;20052;-74
2021/12/11 03:20:24;;;;;;;15.65;5.57;;;-2.30;99.90;;;;;;5054584;28;20552;-73
2021/12/11 03:22:51;;;;;;;23.25;7.82;;;-2.30;99.90;;;;;;5054337;28;20516;-75
2021/12/11 03:25:21;;;;;;;13.63;5.40;;;-2.30;99.90;;;;;;5054541;28;20052;-72
2021/12/11 03:27:47;;;;;;;13.90;6.75;;;-2.30;99.90;;;;;;5054587;28;20374;-71
2021/12/11 03:30:21;;;;;;;14.68;6.00;;;-2.30;99.90;;;;;;5053974;28;20045;-74
2021/12/11 03:32:53;;;;;;;17.30;5.28;;;-2.30;99.90;;;;;;5054564;28;20040;-73
2021/12/11 03:35:19;;;;;;;14.52;5.90;;;-2.30;99.90;;;;;;5053090;28;20076;-73
2021/12/11 03:37:45;;;;;;;15.90;5.60;;;-2.40;99.90;;;;;;5036249;28;20430;-72
2021/12/11 03:40:12;;;;;;;17.67;7.68;;;-2.40;99.90;;;;;;5053947;28;20049;-75
2021/12/11 03:42:40;;;;;;;19.27;6.68;;;-2.40;99.90;;;;;;5036014;28;20053;-74
2021/12/11 03:45:13;;;;;;;18.52;6.13;;;-2.50;99.90;;;;;;5053510;28;20077;-75
2021/12/11 03:47:44;;;;;;;18.90;5.75;;;-2.50;99.90;;;;;;5053991;28;20116;-72
2021/12/11 03:50:12;;;;;;;18.23;6.90;;;-2.60;99.90;;;;;;5053980;28;20111;-73
2021/12/11 03:52:43;;;;;;;15.70;6.60;;;-2.60;99.90;;;;;;5052717;28;20055;-74
2021/12/11 03:55:12;;;;;;;19.83;7.00;;;-2.70;99.90;;;;;;5036127;28;20045;-75
2021/12/11 03:57:38;;;;;;;17.33;7.28;;;-2.70;99.90;;;;;;5053997;28;20041;-73
2021/12/11 04:00:09;;;;;;;20.30;8.57;;;-2.70;99.90;;;;;;5053212;28;20059;-73
2021/12/11 04:02:35;;;;;;;16.60;6.13;;;-2.80;99.90;;;;;;5053669;28;20044;-76
2021/12/11 04:05:05;;;;;;;14.13;4.82;;;-2.70;99.90;;;;;;5052385;28;20052;-73
2021/12/11 04:07:42;;;;;;;27.65;6.03;;;-2.70;99.90;;;;;;5053591;28;20051;-74
2021/12/11 04:10:11;;;;;;;16.98;6.60;;;-2.70;99.90;;;;;;5053651;28;20048;-76
2021/12/11 04:12:37;;;;;;;23.23;6.70;;;-2.70;99.90;;;;;;5053462;28;20041;-73
2021/12/11 04:15:04;;;;;;;20.77;8.35;;;-2.70;99.90;;;;;;5052420;28;20049;-75
2021/12/11 04:17:30;;;;;;;15.52;7.18;;;-2.70;99.90;;;;;;5052894;28;20041;-75
2021/12/11 04:20:00;;;;;;;16.55;6.07;;;-2.70;99.90;;;;;;5053598;28;20053;-75
2021/12/11 04:22:26;;;;;;;15.48;6.72;;;-2.70;99.90;;;;;;5051680;28;20041;-76
2021/12/11 04:24:53;;;;;;;21.10;8.32;;;-2.70;99.90;;;;;;5035404;28;20055;-73
2021/12/11 04:27:23;;;;;;;19.08;8.63;;;-2.60;99.90;;;;;;5053272;28;20073;-73
2021/12/11 04:29:50;;;;;;;19.40;7.32;;;-2.70;99.90;;;;;;5053421;28;20045;-73
2021/12/11 04:32:18;;;;;;;15.60;6.80;;;-2.70;99.90;;;;;;5052644;28;20045;-71
2021/12/11 04:34:44;;;;;;;16.00;6.35;;;-2.70;99.90;;;;;;5053382;28;20041;-73
2021/12/11 04:37:15;;;;;;;18.83;7.28;;;-2.70;99.90;;;;;;5035325;28;20048;-73
2021/12/11 04:39:45;;;;;;;18.90;7.38;;;-2.70;99.90;;;;;;5053130;28;20519;-73
2021/12/11 04:42:26;;;;;;;16.33;6.13;;;-2.80;99.90;;;;;;5053276;28;20049;-73
2021/12/11 04:44:52;;;;;;;14.63;6.50;;;-2.80;99.90;;;;;;5035092;28;20079;-72
2021/12/11 04:47:46;;;;;;;14.95;6.55;;;-2.90;99.90;;;;;;5051406;28;20071;-72
2021/12/11 04:50:29;;;;;;;20.08;7.93;;;-2.80;99.90;;;;;;5035159;28;20052;-73
2021/12/11 04:52:57;;;;;;;22.35;9.98;;;-2.80;99.90;;;;;;5035361;28;20120;-74
2021/12/11 04:58:26;;;;;;;16.20;7.35;;;-2.70;99.90;;;;;;5053266;28;20127;-73
2021/12/11 05:04:00;;;;;;;12.90;6.22;;;-2.70;99.90;;;;;;5052547;28;20059;-73
2021/12/11 05:09:24;;;;;;;15.85;7.00;;;-2.70;99.90;;;;;;5053074;28;20122;-73
2021/12/11 05:12:07;;;;;;;16.90;6.10;;;-2.80;99.90;;;;;;5052873;28;20033;-72
2021/12/11 05:14:34;;;;;;;17.52;8.10;;;-2.80;99.90;;;;;;5053092;28;20056;-72
2021/12/11 05:16:59;;;;;;;15.55;7.05;;;-2.80;99.90;;;;;;5053265;28;20049;-74
2021/12/11 05:19:25;;;;;;;15.32;6.72;;;-2.90;99.90;;;;;;5034092;28;20386;-72
2021/12/11 05:21:51;;;;;;;14.52;5.88;;;-3.00;99.90;;;;;;5035039;28;20099;-72
2021/12/11 05:24:17;;;;;;;17.55;7.70;;;-3.00;99.90;;;;;;5052690;28;20052;-73
2021/12/11 05:26:44;;;;;;;14.95;4.93;;;-3.10;99.90;;;;;;5034878;28;20127;-72
2021/12/11 05:29:10;;;;;;;14.48;6.20;;;-3.10;99.90;;;;;;5052612;28;20041;-70
2021/12/11 05:31:36;;;;;;;27.08;6.90;;;-3.10;99.90;;;;;;5051479;28;20041;-72
2021/12/11 05:34:03;;;;;;;15.43;6.97;;;-3.10;99.90;;;;;;5035582;28;20405;-72
2021/12/11 05:36:31;;;;;;;15.15;5.35;;;-3.10;99.90;;;;;;5056034;28;20492;-72
2021/12/11 05:38:58;;;;;;;14.60;5.30;;;-3.10;99.90;;;;;;5056422;28;20057;-73
2021/12/11 05:41:24;;;;;;;13.75;5.18;;;-3.10;99.90;;;;;;5056384;28;20052;-71
2021/12/11 05:43:50;;;;;;;21.73;7.38;;;-3.10;99.90;;;;;;5056366;28;20127;-72
2021/12/11 05:46:18;;;;;;;14.43;5.78;;;-3.10;99.90;;;;;;5055135;28;20040;-71
2021/12/11 05:48:47;;;;;;;16.67;7.22;;;-1.80;99.90;;;;;;5056464;28;20069;-71
2021/12/11 05:51:17;;;;;;;17.60;6.20;;;-3.10;99.90;;;;;;5020974;28;20726;-72
2021/12/11 05:53:43;;;;;;;16.05;6.50;;;-3.00;99.90;;;;;;5038318;28;20532;-72
2021/12/11 05:56:11;;;;;;;13.77;5.40;;;-3.00;99.90;;;;;;5056103;28;20088;-73
2021/12/11 06:01:31;;;;;;;16.60;6.50;;;-3.10;99.90;;;;;;5056233;28;20057;-72
2021/12/11 06:04:00;;;;;;;16.35;6.25;;;-3.10;99.90;;;;;;5056157;28;20037;-74
2021/12/11 06:06:25;;;;;;;21.33;8.13;;;-3.00;99.90;;;;;;5055710;28;20044;-72
2021/12/11 06:08:52;;;;;;;14.32;6.53;;;-3.00;99.90;;;;;;5055742;28;20380;-72
2021/12/11 06:11:18;;;;;;;16.65;7.10;;;-3.00;99.90;;;;;;5055934;28;20071;-74
2021/12/11 06:13:44;;;;;;;20.23;7.30;;;-3.00;99.90;;;;;;5056396;28;20052;-73
2021/12/11 06:16:10;;;;;;;17.55;7.88;;;-3.00;99.90;;;;;;5055687;28;20040;-70
2021/12/11 06:18:35;;;;;;;17.88;7.47;;;-3.00;99.90;;;;;;5054501;28;20040;-72
2021/12/11 06:21:01;;;;;;;17.10;6.63;;;-3.00;99.90;;;;;;5055625;28;20053;-72
2021/12/11 06:23:28;;;;;;;15.57;7.07;;;-3.10;99.90;;;;;;5037046;28;20060;-72
2021/12/11 06:25:56;;;;;;;18.13;8.48;;;-3.10;99.90;;;;;;5055804;28;20068;-73
2021/12/11 06:28:23;;;;;;;21.45;8.68;;;-3.00;99.90;;;;;;5055754;28;20045;-73
2021/12/11 06:30:50;;;;;;;19.00;7.30;;;-3.00;99.90;;;;;;5054225;28;20132;-73
2021/12/11 06:33:15;;;;;;;15.40;6.35;;;-2.90;99.90;;;;;;5055447;28;20098;-74
2021/12/11 06:35:46;;;;;;;18.08;6.20;;;-2.90;99.90;;;;;;5055433;28;20045;-73
2021/12/11 06:38:16;;;;;;;17.95;7.85;;;-2.90;99.90;;;;;;5036521;28;20057;-72
2021/12/11 06:40:42;;;;;;;23.80;8.50;;;-2.80;99.90;;;;;;5037355;28;20056;-72
2021/12/11 06:43:09;;;;;;;17.70;7.40;;;-2.70;99.90;;;;;;5054183;28;20041;-73
2021/12/11 06:45:35;;;;;;;18.88;6.78;;;-2.70;99.90;;;;;;5054824;28;20045;-72
2021/12/11 06:48:01;;;;;;;19.98;7.72;;;-2.70;99.90;;;;;;5053811;28;20079;-72
2021/12/11 06:50:27;;;;;;;21.13;8.98;;;-2.70;99.90;;;;;;5055227;28;20090;-70
2021/12/11 06:52:57;;;;;;;22.17;8.65;;;-2.70;99.90;;;;;;5055170;28;20041;-72
2021/12/11 06:55:23;;;;;;;18.20;7.78;;;-2.60;99.90;;;;;;5020173;28;20060;-70
2021/12/11 06:57:50;;;;;;;20.02;9.25;;;-2.60;99.90;;;;;;5053722;28;20059;-72
2021/12/11 07:00:18;;;;;;;18.30;8.82;;;-2.50;99.90;;;;;;5036832;28;20143;-73
2021/12/11 07:02:44;;;;;;;16.60;8.07;;;-2.60;99.90;;;;;;5054828;28;20045;-70
2021/12/11 07:05:11;;;;;;;17.20;7.10;;;-2.50;99.90;;;;;;5054964;28;20378;-71
2021/12/11 07:07:37;;;;;;;17.77;7.18;;;-2.50;99.90;;;;;;5054769;28;20049;-72
2021/12/11 07:10:09;;;;;;;16.20;7.65;;;-2.50;99.90;;;;;;5054333;28;20056;-73
2021/12/11 07:12:35;;;;;;;16.35;6.93;;;-2.50;99.90;;;;;;5053479;28;20049;-70
2021/12/11 07:15:03;;;;;;;18.35;7.90;;;-2.50;99.90;;;;;;5037042;28;20445;-72
2021/12/11 07:17:29;;;;;;;15.40;7.05;;;-2.50;99.90;;;;;;5054608;28;20497;-70
2021/12/11 07:19:55;;;;;;;14.60;6.53;;;-2.40;99.90;;;;;;5054698;28;20040;-73
2021/12/11 07:22:20;;;;;;;16.27;7.25;;;-2.50;99.90;;;;;;5054327;28;20045;-72
2021/12/11 07:24:56;;;;;;;17.92;7.78;;;-2.40;99.90;;;;;;5054592;28;20056;-73
2021/12/11 07:27:22;;;;;;;15.50;7.15;;;-2.40;99.90;;;;;;5054151;28;20037;-68
2021/12/11 07:29:48;;;;;;;17.80;6.82;;;-2.30;99.90;;;;;;5054362;28;20103;-72
2021/12/11 07:32:14;;;;;;;21.33;9.30;;;-2.30;99.90;;;;;;5054461;28;20106;-73
2021/12/11 07:34:41;;;;;;;21.02;9.52;;;-2.30;99.90;;;;;;5054404;28;20477;-71
2021/12/11 07:37:08;;;;;;;16.75;6.65;;;-2.20;99.90;;;;;;5054122;28;20047;-71
2021/12/11 07:39:33;;;;;;;15.45;7.38;;;-1.20;99.90;;;;;;5054230;28;20051;-72
2021/12/11 07:42:00;;;;;;;20.23;7.90;;;-2.20;99.90;;;;;;5055353;28;20741;-72
2021/12/11 07:44:27;;;;;;;15.50;7.90;;;-2.20;99.90;;;;;;5054099;28;20087;-72
2021/12/11 07:46:54;;;;;;;16.73;7.43;;;-2.20;99.90;;;;;;5036492;28;20049;-72
2021/12/11 07:49:21;;;;;;;15.68;7.28;;;-2.30;99.90;;;;;;5054116;28;20036;-71
2021/12/11 07:51:49;;;;;;;18.25;8.30;;;-2.30;99.90;;;;;;5053916;28;20033;-71
2021/12/11 07:54:15;;;;;;;22.45;10.25;;;-1.10;99.90;;;;;;5054230;28;20052;-72
2021/12/11 07:56:41;;;;;;;25.17;9.75;;;-2.30;99.90;;;;;;5053871;28;20036;-71
2021/12/11 07:59:10;;;;;;;22.00;9.50;;;-2.30;99.90;;;;;;5034497;28;20049;-71
2021/12/11 08:01:39;;;;;;;18.55;8.45;;;-2.30;99.90;;;;;;5053770;28;20132;-72
2021/12/11 08:04:05;;;;;;;18.88;8.02;;;-2.30;99.90;;;;;;5053639;28;20060;-72
2021/12/11 08:06:33;;;;;;;20.83;8.10;;;-2.40;99.90;;;;;;5053728;28;20041;-73
2021/12/11 08:08:59;;;;;;;23.23;7.80;;;-2.30;99.90;;;;;;5052656;28;20412;-72
2021/12/11 08:11:28;;;;;;;24.50;10.02;;;-2.30;99.90;;;;;;5052178;28;20065;-72
2021/12/11 08:13:57;;;;;;;22.73;10.15;;;-2.30;99.90;;;;;;5053135;28;20051;-71
2021/12/11 08:16:31;;;;;;;27.15;10.35;;;-1.10;99.90;;;;;;5053474;28;20048;-73
2021/12/11 08:18:57;;;;;;;24.45;9.43;;;-2.30;99.90;;;;;;5035904;28;20420;-72
2021/12/11 08:21:23;;;;;;;23.58;9.77;;;-2.30;99.90;;;;;;5053430;28;20041;-77
2021/12/11 08:23:54;;;;;;;25.98;11.52;;;-2.20;99.90;;;;;;5053572;28;20465;-71
2021/12/11 08:26:21;;;;;;;25.10;9.27;;;-2.20;99.90;;;;;;5053404;28;20048;-72
2021/12/11 08:28:49;;;;;;;33.75;10.18;;;-2.20;99.90;;;;;;5053220;28;20045;-72
2021/12/11 08:31:14;;;;;;;26.15;11.73;;;-2.20;99.90;;;;;;5034933;28;20116;-72
2021/12/11 08:33:41;;;;;;;26.23;9.90;;;-2.10;99.90;;;;;;5034691;28;20607;-70
2021/12/11 08:36:08;;;;;;;26.88;10.52;;;-2.10;99.90;;;;;;5035505;28;20045;-70
2021/12/11 08:38:34;;;;;;;24.25;9.55;;;-2.10;99.90;;;;;;5053172;28;20454;-72
2021/12/11 08:41:01;;;;;;;27.80;11.32;;;-2.00;99.90;;;;;;5035489;28;20123;-72
2021/12/11 08:43:28;;;;;;;32.97;12.00;;;-2.00;99.90;;;;;;5053277;28;20041;-72
2021/12/11 08:46:09;;;;;;;25.60;11.13;;;-2.00;99.90;;;;;;5052550;28;20048;-76
2021/12/11 08:48:40;;;;;;;23.85;10.32;;;-1.90;99.90;;;;;;5052706;28;20045;-76
2021/12/11 08:51:11;;;;;;;31.92;10.40;;;-1.60;99.90;;;;;;5053196;28;20041;-72
2021/12/11 08:53:37;;;;;;;25.35;11.55;;;-1.90;99.90;;;;;;5053164;28;20040;-71
2021/12/11 08:56:06;;;;;;;29.60;13.30;;;-1.80;99.90;;;;;;5051422;28;20057;-72
2021/12/11 08:58:33;;;;;;;28.50;12.45;;;-1.70;99.90;;;;;;5052905;28;20497;-72
2021/12/11 09:01:11;;;;;;;32.58;12.65;;;-1.70;99.90;;;;;;5052436;28;20057;-69
2021/12/11 09:03:41;;;;;;;28.10;11.70;;;-1.60;99.90;;;;;;5053247;28;20076;-72
2021/12/11 09:06:10;;;;;;;23.63;11.80;;;-1.60;99.90;;;;;;5053012;28;20099;-71
2021/12/11 09:08:41;;;;;;;27.23;11.82;;;-1.50;99.90;;;;;;5052925;28;20120;-72
2021/12/11 09:11:26;;;;;;;27.02;12.18;;;-1.40;99.90;;;;;;5056922;28;20552;-72
2021/12/11 09:14:11;;;;;;;33.45;13.38;;;-1.40;99.90;;;;;;5056790;28;20056;-73
2021/12/11 09:17:01;;;;;;;28.15;13.43;;;-1.30;99.90;;;;;;5056677;28;20485;-72
2021/12/11 09:19:42;;;;;;;22.17;9.45;;;-1.20;99.90;;;;;;5022709;28;20055;-71
2021/12/11 09:22:14;;;;;;;23.40;10.25;;;-1.20;99.90;;;;;;5056487;28;20060;-69
2021/12/11 09:24:49;;;;;;;27.08;11.55;;;-1.10;99.90;;;;;;5056711;28;20492;-74
2021/12/11 09:27:26;;;;;;;30.42;12.80;;;-1.10;99.90;;;;;;5056797;28;20076;-73
2021/12/11 09:29:55;;;;;;;30.45;10.95;;;-1.00;99.90;;;;;;5056508;28;20095;-71
2021/12/11 09:32:23;;;;;;;25.05;11.48;;;-0.90;99.90;;;;;;5038041;28;20549;-73
2021/12/11 09:35:05;;;;;;;31.63;12.13;;;-0.90;99.90;;;;;;5056443;28;20080;-74
2021/12/11 09:37:32;;;;;;;31.13;14.50;;;-0.80;99.90;;;;;;5038480;28;20049;-73
2021/12/11 09:40:05;;;;;;;37.53;18.00;;;-0.80;99.90;;;;;;5035326;28;20518;-74
2021/12/11 09:42:30;;;;;;;35.20;17.42;;;-1.60;99.90;;;;;;5036428;28;20057;-73
2021/12/11 09:45:11;;;;;;;37.10;17.58;;;-0.70;99.90;;;;;;5035363;28;20054;-73
2021/12/11 09:47:41;;;;;;;37.35;16.92;;;-0.60;99.90;;;;;;5036470;28;20051;-73
2021/12/11 09:50:22;;;;;;;32.83;15.18;;;-0.50;99.90;;;;;;5034373;28;20410;-73
2021/12/11 09:52:49;;;;;;;37.17;16.73;;;-0.50;99.90;;;;;;5051730;28;20092;-74
2021/12/11 09:55:26;;;;;;;34.35;16.17;;;-0.40;99.90;;;;;;5035050;28;20159;-75
2021/12/11 09:57:57;;;;;;;34.42;16.48;;;-0.30;99.90;;;;;;5036063;28;20045;-74
2021/12/11 10:00:32;;;;;;;36.67;17.42;;;-0.20;99.90;;;;;;5036265;28;20057;-73
2021/12/11 10:03:00;;;;;;;35.33;16.42;;;-0.20;99.90;;;;;;5036226;28;20041;-74
2021/12/11 10:05:34;;;;;;;35.70;16.05;;;-0.10;99.90;;;;;;5035713;28;20180;-76
2021/12/11 10:10:50;;;;;;;36.63;15.60;;;0.10;99.90;;;;;;5029497;28;20133;-71
2021/12/11 10:13:16;;;;;;;35.55;16.17;;;0.20;99.90;;;;;;5026879;28;20037;-74
2021/12/11 10:15:42;;;;;;;34.78;15.95;;;0.30;99.90;;;;;;5026891;28;20083;-74
2021/12/11 10:18:13;;;;;;;34.72;15.55;;;0.40;99.90;;;;;;5041523;28;20414;-76
2021/12/11 10:20:44;;;;;;;30.35;14.63;;;0.40;99.90;;;;;;5026321;28;20054;-75
2021/12/11 10:23:14;;;;;;;32.60;14.80;;;0.50;99.90;;;;;;5029840;28;20046;-75
2021/12/11 10:25:42;;;;;;;29.38;14.20;;;0.60;99.90;;;;;;5033783;28;20132;-75
2021/12/11 10:28:11;;;;;;;30.90;14.38;;;0.70;99.90;;;;;;5034360;28;20098;-75
2021/12/11 10:30:44;;;;;;;28.88;14.10;;;0.80;99.90;;;;;;5035689;28;20183;-76
2021/12/11 10:33:11;;;;;;;31.92;16.30;;;0.90;99.90;;;;;;5035359;28;20088;-76
2021/12/11 10:35:41;;;;;;;34.45;16.23;;;1.00;99.90;;;;;;5033889;28;20045;-75
2021/12/11 10:38:07;;;;;;;34.38;15.23;;;1.00;99.90;;;;;;5035430;28;20405;-75
2021/12/11 10:40:37;;;;;;;28.80;15.00;;;1.10;99.90;;;;;;5053906;28;20183;-75
2021/12/11 10:43:11;;;;;;;30.65;14.85;;;1.20;99.90;;;;;;5054085;28;20063;-76
2021/12/11 10:45:37;;;;;;;30.63;15.50;;;1.30;99.90;;;;;;5055184;28;20138;-75
2021/12/11 10:48:08;;;;;;;33.70;16.05;;;1.30;99.90;;;;;;5055245;28;20179;-76
2021/12/11 10:50:39;;;;;;;36.13;17.48;;;1.40;99.90;;;;;;5055247;28;20047;-75
2021/12/11 10:53:10;;;;;;;35.65;17.65;;;1.40;99.90;;;;;;5054933;28;20060;-74
2021/12/11 10:55:36;;;;;;;33.40;16.45;;;1.40;99.90;;;;;;5036812;28;20123;-71
2021/12/11 10:58:09;;;;;;;34.15;16.75;;;1.50;99.90;;;;;;5055025;28;20045;-75
2021/12/11 11:00:45;;;;;;;31.05;15.88;;;1.50;99.90;;;;;;5037220;28;20581;-75
2021/12/11 11:03:11;;;;;;;39.65;18.13;;;1.50;99.90;;;;;;5054513;28;20059;-71
2021/12/11 11:05:38;;;;;;;33.22;16.00;;;1.60;99.90;;;;;;5036761;28;20048;-73
2021/12/11 11:08:06;;;;;;;30.67;16.08;;;1.60;99.90;;;;;;5054691;28;20044;-72
2021/12/11 11:10:38;;;;;;;32.65;16.42;;;1.70;99.90;;;;;;5054658;28;20041;-76
2021/12/11 11:13:08;;;;;;;33.90;15.88;;;2.60;99.90;;;;;;5037376;28;20095;-74
2021/12/11 11:15:35;;;;;;;30.15;14.70;;;1.80;99.90;;;;;;5054257;28;20045;-76
2021/12/11 11:18:01;;;;;;;28.77;14.57;;;1.80;99.90;;;;;;5036979;28;20476;-75
2021/12/11 11:20:33;;;;;;;27.10;13.38;;;1.80;99.90;;;;;;5054869;28;20450;-76
2021/12/11 11:23:00;;;;;;;33.80;15.35;;;3.00;99.90;;;;;;5054337;28;20049;-76
2021/12/11 11:25:30;;;;;;;35.35;16.77;;;1.90;99.90;;;;;;5054358;28;20057;-76
2021/12/11 11:28:01;;;;;;;31.25;15.85;;;2.00;99.90;;;;;;5054400;28;20397;-75
2021/12/11 11:30:34;;;;;;;33.08;16.02;;;2.10;99.90;;;;;;5054390;28;20076;-76
2021/12/11 11:33:02;;;;;;;32.53;16.70;;;2.10;99.90;;;;;;5054143;28;20485;-76
2021/12/11 11:35:31;;;;;;;31.95;15.75;;;2.20;99.90;;;;;;5054466;28;20087;-75
2021/12/11 11:38:00;;;;;;;29.90;15.05;;;2.20;99.90;;;;;;5054270;28;20493;-74
2021/12/11 11:40:30;;;;;;;30.13;16.75;;;2.20;99.90;;;;;;5053561;28;20049;-76
2021/12/11 11:42:57;;;;;;;31.42;16.15;;;2.30;99.90;;;;;;5053756;28;20051;-77
2021/12/11 11:45:24;;;;;;;38.00;17.17;;;2.30;99.90;;;;;;5054126;28;20401;-77
2021/12/11 11:47:50;;;;;;;29.33;14.95;;;3.50;99.90;;;;;;5054064;28;20443;-76
2021/12/11 11:50:19;;;;;;;31.35;16.30;;;2.30;99.90;;;;;;5035395;28;20052;-76
2021/12/11 11:52:45;;;;;;;33.72;16.10;;;2.40;99.90;;;;;;5053701;28;20048;-76
2021/12/11 11:55:15;;;;;;;32.45;15.60;;;3.10;99.90;;;;;;5053200;28;20044;-76
2021/12/11 11:57:48;;;;;;;33.28;15.40;;;2.50;99.90;;;;;;5035433;28;20067;-76
2021/12/11 12:00:26;;;;;;;29.52;16.02;;;3.20;99.90;;;;;;5035566;28;20052;-76
2021/12/11 12:02:52;;;;;;;31.90;16.85;;;2.60;99.90;;;;;;5053333;28;20052;-72
2021/12/11 12:05:19;;;;;;;31.60;16.10;;;2.60;99.90;;;;;;5053544;28;20045;-77
2021/12/11 12:07:46;;;;;;;34.20;17.70;;;2.70;99.90;;;;;;5035975;28;20168;-77
2021/12/11 12:10:19;;;;;;;32.58;15.93;;;2.80;99.90;;;;;;5053260;28;20069;-76
2021/12/11 12:12:46;;;;;;;28.92;15.90;;;2.80;99.90;;;;;;5053549;28;20041;-76
2021/12/11 12:15:16;;;;;;;28.58;15.45;;;2.80;99.90;;;;;;5035581;28;20049;-76
2021/12/11 12:17:42;;;;;;;32.65;14.80;;;2.90;99.90;;;;;;5035737;28;20080;-77
2021/12/11 12:20:11;;;;;;;31.83;15.68;;;2.70;99.90;;;;;;5053671;28;20122;-77
2021/12/11 12:22:36;;;;;;;32.95;15.43;;;2.80;99.90;;;;;;5053467;28;20404;-75
2021/12/11 12:25:03;;;;;;;31.63;16.70;;;2.80;99.90;;;;;;5035352;28;20041;-77
2021/12/11 12:27:32;;;;;;;32.75;16.10;;;2.90;99.90;;;;;;5034978;28;20055;-77
2021/12/11 12:30:00;;;;;;;32.10;16.33;;;3.00;99.90;;;;;;5035573;28;20049;-74
2021/12/11 12:32:30;;;;;;;33.10;15.48;;;3.00;99.90;;;;;;5035735;28;20435;-78
2021/12/11 12:34:59;;;;;;;28.80;15.30;;;3.10;99.90;;;;;;5035797;28;20443;-77
2021/12/11 12:37:27;;;;;;;36.55;15.32;;;3.20;99.90;;;;;;5035491;28;20049;-77
2021/12/11 12:39:55;;;;;;;33.25;15.65;;;3.30;99.90;;;;;;5053032;28;20408;-75
2021/12/11 12:42:34;;;;;;;39.47;15.07;;;3.30;99.90;;;;;;5034866;28;20048;-77
2021/12/11 12:45:15;;;;;;;30.05;14.27;;;3.30;99.90;;;;;;5034733;28;20128;-78
2021/12/11 12:47:45;;;;;;;34.72;14.98;;;3.40;99.90;;;;;;5051794;28;20090;-77
2021/12/11 12:50:21;;;;;;;33.88;15.68;;;3.80;99.90;;;;;;5051713;28;20132;-78
2021/12/11 12:52:47;;;;;;;32.38;15.30;;;3.40;99.90;;;;;;5053095;28;20091;-77
2021/12/11 12:55:33;;;;;;;32.88;15.27;;;3.70;99.90;;;;;;5053048;28;20048;-76
2021/12/11 12:58:03;;;;;;;32.80;15.75;;;3.50;99.90;;;;;;5052651;28;20091;-77
2021/12/11 13:00:38;;;;;;;31.27;16.20;;;3.50;99.90;;;;;;5053041;28;20053;-78
2021/12/11 13:03:12;;;;;;;32.63;15.90;;;3.50;99.90;;;;;;5053175;28;20087;-77
2021/12/11 13:05:45;;;;;;;32.17;15.25;;;3.40;99.90;;;;;;5035146;28;20045;-78